createdAt,value
2023-01-04T00:01:25.433Z,15.05
2023-01-04T00:03:52.447Z,16.95
2023-01-04T00:06:19.631Z,17.10
2023-01-04T00:08:46.425Z,16.75
2023-01-04T00:11:15.056Z,16.60
2023-01-04T00:13:41.881Z,16.60
2023-01-04T00:16:11.756Z,15.45
2023-01-04T00:18:38.643Z,16.33
2023-01-04T00:21:18.571Z,17.23
2023-01-04T00:23:46.737Z,17.08
2023-01-04T00:26:15.641Z,16.50
2023-01-04T00:28:43.933Z,16.77
2023-01-04T00:31:14.041Z,17.20
2023-01-04T00:33:40.774Z,17.35
2023-01-04T00:36:12.164Z,19.80
2023-01-04T00:38:39.010Z,17.50
2023-01-04T00:41:06.064Z,16.33
2023-01-04T00:43:32.929Z,17.30
2023-01-04T00:46:01.293Z,17.35
2023-01-04T00:48:28.841Z,17.92
2023-01-04T00:50:55.623Z,17.17
2023-01-04T00:53:22.396Z,17.30
2023-01-04T00:55:49.099Z,16.55
2023-01-04T00:58:15.787Z,15.60
2023-01-04T01:00:42.512Z,16.15
2023-01-04T01:03:09.396Z,15.77
2023-01-04T01:05:36.376Z,17.17
2023-01-04T01:08:23.499Z,16.13
2023-01-04T01:10:50.926Z,15.90
2023-01-04T01:13:17.729Z,17.95
2023-01-04T01:15:44.524Z,17.95
2023-01-04T01:18:11.408Z,18.25
2023-01-04T01:20:44.792Z,18.98
2023-01-04T01:23:14.902Z,21.38
2023-01-04T01:25:41.896Z,20.58
2023-01-04T01:28:08.702Z,21.92
2023-01-04T01:30:38.725Z,22.27
2023-01-04T01:33:05.413Z,23.38
2023-01-04T01:35:33.579Z,24.20
2023-01-04T01:38:00.332Z,22.65
2023-01-04T01:40:27.081Z,22.58
2023-01-04T01:42:53.830Z,20.23
2023-01-04T01:45:33.650Z,21.33
2023-01-04T01:48:15.470Z,21.98
2023-01-04T01:50:46.771Z,21.92
2023-01-04T01:53:13.719Z,23.80
2023-01-04T01:55:40.770Z,23.90
2023-01-04T01:58:07.614Z,24.15
2023-01-04T02:00:34.343Z,23.52
2023-01-04T02:03:12.486Z,22.58
2023-01-04T02:05:39.414Z,23.60
2023-01-04T02:08:06.195Z,23.33
2023-01-04T02:10:33.194Z,21.98
2023-01-04T02:13:02.580Z,22.17
2023-01-04T02:15:29.663Z,20.95
2023-01-04T02:18:02.067Z,23.50
2023-01-04T02:20:31.945Z,23.13
2023-01-04T02:23:20.355Z,23.27
2023-01-04T02:26:14.549Z,22.58
2023-01-04T02:29:12.610Z,23.15
2023-01-04T02:31:46.052Z,22.40
2023-01-04T02:34:33.952Z,21.13
2023-01-04T02:37:12.021Z,21.85
2023-01-04T02:39:57.210Z,22.60
2023-01-04T02:42:52.077Z,21.60
2023-01-04T02:45:21.857Z,22.80
2023-01-04T02:48:07.121Z,21.02
2023-01-04T02:50:58.483Z,22.95
2023-01-04T02:53:37.570Z,21.88
2023-01-04T02:56:18.439Z,19.52
2023-01-04T02:58:57.523Z,21.05
2023-01-04T03:02:09.357Z,20.95
2023-01-04T03:05:30.323Z,20.63
2023-01-04T03:08:22.633Z,18.42
2023-01-04T03:11:30.666Z,19.15
2023-01-04T03:14:31.715Z,18.88
2023-01-04T03:16:56.629Z,19.85
2023-01-04T03:19:42.564Z,19.92
2023-01-04T03:22:29.239Z,18.70
2023-01-04T03:25:14.405Z,18.40
2023-01-04T03:27:59.591Z,19.90
2023-01-04T03:30:45.925Z,21.83
2023-01-04T03:33:31.048Z,17.02
2023-01-04T03:36:10.974Z,18.52
2023-01-04T03:39:14.903Z,18.30
2023-01-04T03:42:06.066Z,18.35
2023-01-04T03:45:36.908Z,18.38
2023-01-04T03:48:27.264Z,17.42
2023-01-04T03:51:14.822Z,19.05
2023-01-04T03:53:55.260Z,18.52
2023-01-04T03:56:22.597Z,18.23
2023-01-04T03:58:51.697Z,19.67
2023-01-04T04:01:21.684Z,17.90
2023-01-04T04:04:07.168Z,16.92
2023-01-04T04:06:52.551Z,18.65
2023-01-04T04:09:19.318Z,21.58
2023-01-04T04:11:46.031Z,18.77
2023-01-04T04:14:12.769Z,21.83
2023-01-04T04:16:39.624Z,18.95
2023-01-04T04:19:08.784Z,19.65
2023-01-04T04:21:36.107Z,18.10
2023-01-04T04:24:02.900Z,19.35
2023-01-04T04:26:29.637Z,18.77
2023-01-04T04:28:56.361Z,18.67
2023-01-04T04:31:23.107Z,19.60
2023-01-04T04:33:49.858Z,19.35
2023-01-04T04:36:16.599Z,16.67
2023-01-04T04:38:43.353Z,17.90
2023-01-04T04:41:29.670Z,18.63
2023-01-04T04:43:57.219Z,16.17
2023-01-04T04:46:24.261Z,15.90
2023-01-04T04:48:51.113Z,17.40
2023-01-04T04:51:17.933Z,17.75
2023-01-04T04:53:44.745Z,16.65
2023-01-04T04:56:11.479Z,16.88
2023-01-04T04:58:39.041Z,16.83
2023-01-04T05:01:05.886Z,17.83
2023-01-04T05:03:33.073Z,17.20
2023-01-04T05:05:59.927Z,16.73
2023-01-04T05:08:26.733Z,16.42
2023-01-04T05:10:53.606Z,14.50
2023-01-04T05:13:20.364Z,15.30
2023-01-04T05:15:49.115Z,16.67
2023-01-04T05:18:16.798Z,17.33
2023-01-04T05:20:43.650Z,16.33
2023-01-04T05:23:11.853Z,17.40
2023-01-04T05:25:38.807Z,15.65
2023-01-04T05:28:06.211Z,19.52
2023-01-04T05:30:51.238Z,19.98
2023-01-04T05:33:20.666Z,19.65
2023-01-04T05:35:47.544Z,26.75
2023-01-04T05:38:14.325Z,26.77
2023-01-04T05:40:41.146Z,21.10
2023-01-04T05:43:07.972Z,19.23
2023-01-04T05:45:35.012Z,24.35
2023-01-04T05:48:01.842Z,25.73
2023-01-04T05:50:28.714Z,20.48
2023-01-04T05:52:55.446Z,39.70
2023-01-04T05:55:22.248Z,35.05
2023-01-04T05:57:49.078Z,22.48
2023-01-04T06:00:15.959Z,26.00
2023-01-04T06:02:43.145Z,26.88
2023-01-04T06:05:10.845Z,24.90
2023-01-04T06:07:38.619Z,26.63
2023-01-04T06:10:10.286Z,28.77
2023-01-04T06:12:37.134Z,20.48
2023-01-04T06:15:04.477Z,18.40
2023-01-04T06:17:31.159Z,17.17
2023-01-04T06:19:57.943Z,16.77
2023-01-04T06:22:27.027Z,19.48
2023-01-04T06:24:53.783Z,17.27
2023-01-04T06:27:20.527Z,16.55
2023-01-04T06:29:47.231Z,20.80
2023-01-04T06:32:14.025Z,19.13
2023-01-04T06:34:40.787Z,14.90
2023-01-04T06:37:07.540Z,17.52
2023-01-04T06:39:34.275Z,15.68
2023-01-04T06:42:06.221Z,17.73
2023-01-04T06:44:33.576Z,13.52
2023-01-04T06:47:00.327Z,12.80
2023-01-04T06:49:27.050Z,14.73
2023-01-04T06:51:53.822Z,16.98
2023-01-04T06:54:20.599Z,14.68
2023-01-04T06:56:47.372Z,13.13
2023-01-04T06:59:14.224Z,15.75
2023-01-04T07:01:41.060Z,17.65
2023-01-04T07:04:07.932Z,16.35
2023-01-04T07:06:34.703Z,17.58
2023-01-04T07:09:01.442Z,16.50
2023-01-04T07:11:28.161Z,16.75
2023-01-04T07:13:55.043Z,18.65
2023-01-04T07:16:21.892Z,16.20
2023-01-04T07:18:48.724Z,17.95
2023-01-04T07:21:15.461Z,15.55
2023-01-04T07:23:42.225Z,16.08
2023-01-04T07:26:09.075Z,17.08
2023-01-04T07:28:54.654Z,17.67
2023-01-04T07:31:21.492Z,15.50
2023-01-04T07:33:51.306Z,17.83
2023-01-04T07:36:18.050Z,17.92
2023-01-04T07:38:44.824Z,17.08
2023-01-04T07:41:11.587Z,17.88
2023-01-04T07:43:38.372Z,17.27
2023-01-04T07:46:05.230Z,14.93
2023-01-04T07:48:32.030Z,16.55
2023-01-04T07:50:58.808Z,18.75
2023-01-04T07:53:25.547Z,19.38
2023-01-04T07:55:57.094Z,21.38
2023-01-04T07:58:23.928Z,18.48
2023-01-04T08:00:51.093Z,18.10
2023-01-04T08:03:17.892Z,19.13
2023-01-04T08:05:44.645Z,19.45
2023-01-04T08:08:11.386Z,19.48
2023-01-04T08:10:38.145Z,18.63
2023-01-04T08:13:04.983Z,17.73
2023-01-04T08:15:32.434Z,21.42
2023-01-04T08:17:59.205Z,20.30
2023-01-04T08:20:26.095Z,20.98
2023-01-04T08:22:52.935Z,24.73
2023-01-04T08:25:19.700Z,28.80
2023-01-04T08:27:46.428Z,24.13
2023-01-04T08:30:13.182Z,22.42
2023-01-04T08:32:40.619Z,22.00
2023-01-04T08:35:07.699Z,19.25
2023-01-04T08:37:35.435Z,20.92
2023-01-04T08:40:03.097Z,21.50
2023-01-04T08:42:31.887Z,19.30
2023-01-04T08:45:01.346Z,19.05
2023-01-04T08:47:30.249Z,17.88
2023-01-04T08:49:57.361Z,18.30
2023-01-04T08:52:24.236Z,17.17
2023-01-04T08:54:51.022Z,20.27
2023-01-04T08:57:18.084Z,16.92
2023-01-04T08:59:44.928Z,16.88
2023-01-04T09:02:29.753Z,16.13
2023-01-04T09:05:00.046Z,14.75
2023-01-04T09:07:32.984Z,11.18
2023-01-04T09:10:03.316Z,8.98
2023-01-04T09:12:30.136Z,9.05
2023-01-04T09:14:56.841Z,8.52
2023-01-04T09:17:24.353Z,9.50
2023-01-04T09:19:51.081Z,9.10
2023-01-04T09:22:17.878Z,8.90
2023-01-04T09:24:44.642Z,8.52
2023-01-04T09:27:12.242Z,9.77
2023-01-04T09:29:38.959Z,9.30
2023-01-04T09:32:06.727Z,8.50
2023-01-04T09:34:35.253Z,9.18
2023-01-04T09:37:02.019Z,9.38
2023-01-04T09:39:30.596Z,10.48
2023-01-04T09:42:03.987Z,9.20
2023-01-04T09:48:03.109Z,9.57
2023-01-04T09:50:36.739Z,10.48
2023-01-04T09:53:23.997Z,11.63
2023-01-04T09:55:51.757Z,10.48
2023-01-04T09:58:18.821Z,10.18
2023-01-04T10:01:05.131Z,10.50
2023-01-04T10:03:38.827Z,9.25
2023-01-04T10:06:15.782Z,9.98
2023-01-04T10:08:43.038Z,9.20
2023-01-04T10:11:36.156Z,10.00
2023-01-04T10:14:30.241Z,9.82
2023-01-04T10:17:35.420Z,11.05
2023-01-04T10:23:25.469Z,8.80
2023-01-04T10:25:54.908Z,9.30
2023-01-04T10:28:50.763Z,8.70
2023-01-04T10:31:41.777Z,7.30
2023-01-04T10:34:30.357Z,7.45
2023-01-04T10:36:59.093Z,7.65
2023-01-04T10:39:33.152Z,6.35
2023-01-04T10:42:06.722Z,6.45
2023-01-04T10:45:10.755Z,6.85
2023-01-04T10:47:58.449Z,5.95
2023-01-04T10:50:56.629Z,5.88
2023-01-04T10:53:38.529Z,6.60
2023-01-04T10:56:26.382Z,6.13
2023-01-04T10:58:56.170Z,6.43
2023-01-04T11:01:34.068Z,5.53
2023-01-04T11:04:22.980Z,6.00
2023-01-04T11:07:06.483Z,5.60
2023-01-04T11:09:39.375Z,5.80
2023-01-04T11:12:06.172Z,6.55
2023-01-04T11:14:37.254Z,6.25
2023-01-04T11:17:05.847Z,5.80
2023-01-04T11:19:32.599Z,5.57
2023-01-04T11:22:18.660Z,6.30
2023-01-04T11:25:00.697Z,5.60
2023-01-04T11:27:48.113Z,6.10
2023-01-04T11:30:17.929Z,6.25
2023-01-04T11:32:59.059Z,5.60
2023-01-04T11:35:43.065Z,4.70
2023-01-04T11:38:12.519Z,5.90
2023-01-04T11:40:41.192Z,6.15
2023-01-04T11:43:12.090Z,7.28
2023-01-04T11:45:38.995Z,7.05
2023-01-04T11:48:12.364Z,7.05
2023-01-04T11:50:46.760Z,5.97
2023-01-04T11:53:33.891Z,4.83
2023-01-04T11:56:21.301Z,4.90
2023-01-04T11:59:09.487Z,5.13
2023-01-04T12:01:38.639Z,5.43
2023-01-04T12:04:14.576Z,4.85
2023-01-04T12:06:47.149Z,5.32
2023-01-04T12:09:15.502Z,5.28
2023-01-04T12:11:45.604Z,5.45
2023-01-04T12:14:19.891Z,4.82
2023-01-04T12:16:54.107Z,5.15
2023-01-04T12:19:20.843Z,5.40
2023-01-04T12:21:58.675Z,6.35
2023-01-04T12:24:27.926Z,4.70
2023-01-04T12:26:54.782Z,6.13
2023-01-04T12:29:24.238Z,6.35
2023-01-04T12:32:06.804Z,7.00
2023-01-04T12:34:34.307Z,6.88
2023-01-04T12:37:05.546Z,5.93
2023-01-04T12:39:42.822Z,6.07
2023-01-04T12:42:19.245Z,6.40
2023-01-04T12:44:51.844Z,15.32
2023-01-04T12:47:37.386Z,16.42
2023-01-04T12:50:19.928Z,16.83
2023-01-04T12:55:51.295Z,16.60
2023-01-04T13:01:25.041Z,17.30
2023-01-04T13:04:00.791Z,15.15
2023-01-04T13:06:32.396Z,16.33
2023-01-04T13:08:59.218Z,16.92
2023-01-04T13:12:08.786Z,12.35
2023-01-04T13:14:53.816Z,8.80
2023-01-04T13:17:22.304Z,3.50
2023-01-04T13:19:49.366Z,2.25
2023-01-04T13:22:29.894Z,2.33
2023-01-04T13:24:57.780Z,2.10
2023-01-04T13:27:24.869Z,2.22
2023-01-04T13:29:51.872Z,3.30
2023-01-04T13:32:25.096Z,3.45
2023-01-04T13:35:05.761Z,3.67
2023-01-04T13:37:43.835Z,4.07
2023-01-04T13:40:26.474Z,3.05
2023-01-04T13:43:02.203Z,4.40
2023-01-04T13:45:41.162Z,3.90
2023-01-04T13:48:16.096Z,4.45
2023-01-04T13:50:47.263Z,4.53
2023-01-04T13:53:24.110Z,4.72
2023-01-04T13:55:55.256Z,3.28
2023-01-04T13:58:26.651Z,3.83
2023-01-04T14:00:56.570Z,3.15
2023-01-04T14:03:34.464Z,2.92
2023-01-04T14:06:10.607Z,2.90
2023-01-04T14:09:03.310Z,3.50
2023-01-04T14:12:06.141Z,3.70
2023-01-04T14:14:59.219Z,3.00
2023-01-04T14:17:50.605Z,3.58
2023-01-04T14:20:20.355Z,3.28
2023-01-04T14:22:47.141Z,3.88
2023-01-04T14:25:38.095Z,3.40
2023-01-04T14:28:24.696Z,3.92
2023-01-04T14:30:53.816Z,3.28
2023-01-04T14:33:30.828Z,4.07
2023-01-04T14:36:21.755Z,4.00
2023-01-04T14:39:00.677Z,4.05
2023-01-04T14:41:32.322Z,3.58
2023-01-04T14:44:12.213Z,3.72
2023-01-04T14:46:39.077Z,3.70
2023-01-04T14:49:05.950Z,4.25
2023-01-04T14:51:46.403Z,3.75
2023-01-04T14:54:17.451Z,4.60
2023-01-04T14:56:47.373Z,4.18
2023-01-04T14:59:14.089Z,5.38
2023-01-04T15:01:40.997Z,4.75
2023-01-04T15:04:08.048Z,5.55
2023-01-04T15:06:35.011Z,5.95
2023-01-04T15:09:01.917Z,5.30
2023-01-04T15:11:29.027Z,4.60
2023-01-04T15:13:55.728Z,4.80
2023-01-04T15:16:22.916Z,4.93
2023-01-04T15:18:49.720Z,5.10
2023-01-04T15:21:16.563Z,5.05
2023-01-04T15:23:43.356Z,5.80
2023-01-04T15:26:11.400Z,5.47
2023-01-04T15:28:38.231Z,5.30
2023-01-04T15:31:10.670Z,4.55
2023-01-04T15:33:37.762Z,5.45
2023-01-04T15:36:09.287Z,4.35
2023-01-04T15:38:36.036Z,5.28
2023-01-04T15:41:04.383Z,6.57
2023-01-04T15:43:36.443Z,5.35
2023-01-04T15:46:07.663Z,5.63
2023-01-04T15:48:35.599Z,6.30
2023-01-04T15:51:04.019Z,6.25
2023-01-04T15:53:30.962Z,5.47
2023-01-04T15:56:05.017Z,5.43
2023-01-04T15:58:31.785Z,3.95
2023-01-04T16:01:05.820Z,5.20
2023-01-04T16:03:35.262Z,4.95
2023-01-04T16:06:09.616Z,3.63
2023-01-04T16:08:36.355Z,3.45
2023-01-04T16:11:29.283Z,3.30
2023-01-04T16:13:56.049Z,2.85
2023-01-04T16:16:24.004Z,2.40
2023-01-04T16:18:52.180Z,2.38
2023-01-04T16:21:24.217Z,2.10
2023-01-04T16:23:51.787Z,2.50
2023-01-04T16:26:18.528Z,2.67
2023-01-04T16:28:50.106Z,2.28
2023-01-04T16:31:17.097Z,2.42
2023-01-04T16:33:47.141Z,2.47
2023-01-04T16:36:14.391Z,2.88
2023-01-04T16:38:42.702Z,4.22
2023-01-04T16:41:12.029Z,3.75
2023-01-04T16:43:46.286Z,4.05
2023-01-04T16:46:13.129Z,3.80
2023-01-04T16:48:43.618Z,3.42
2023-01-04T16:51:10.547Z,3.42
2023-01-04T16:53:37.401Z,5.72
2023-01-04T16:56:09.496Z,5.45
2023-01-04T16:58:36.592Z,5.72
2023-01-04T17:01:16.168Z,4.82
2023-01-04T17:03:43.855Z,4.05
2023-01-04T17:06:19.342Z,4.00
2023-01-04T17:08:47.283Z,2.95
2023-01-04T17:12:04.866Z,2.92
2023-01-04T17:14:02.998Z,3.33
2023-01-04T17:16:34.696Z,3.03
2023-01-04T17:19:01.993Z,3.23
2023-01-04T17:21:34.366Z,3.13
2023-01-04T17:24:02.068Z,3.00
2023-01-04T17:26:30.297Z,4.20
2023-01-04T17:28:57.713Z,4.38
2023-01-04T17:31:32.362Z,3.92
2023-01-04T17:33:59.160Z,4.63
2023-01-04T17:36:25.969Z,3.72
2023-01-04T17:38:52.637Z,4.03
2023-01-04T17:41:23.567Z,4.55
2023-01-04T17:43:56.180Z,4.20
2023-01-04T17:46:23.895Z,5.18
2023-01-04T17:49:10.355Z,4.25
2023-01-04T17:51:38.337Z,3.70
2023-01-04T17:54:05.785Z,4.05
2023-01-04T17:56:37.102Z,4.00
2023-01-04T17:59:06.627Z,4.05
2023-01-04T18:01:33.587Z,4.53
2023-01-04T18:04:00.751Z,3.88
2023-01-04T18:06:29.236Z,3.20
2023-01-04T18:08:56.571Z,3.25
2023-01-04T18:11:23.511Z,3.33
2023-01-04T18:13:50.596Z,3.40
2023-01-04T18:16:24.836Z,3.00
2023-01-04T18:18:53.116Z,2.95
2023-01-04T18:21:28.449Z,3.00
2023-01-04T18:27:19.345Z,3.10
2023-01-04T18:29:31.886Z,3.22
2023-01-04T18:31:58.813Z,3.78
2023-01-04T18:34:28.716Z,3.75
2023-01-04T18:36:55.484Z,3.70
2023-01-04T18:39:22.372Z,4.25
2023-01-04T18:41:49.075Z,3.97
2023-01-04T18:44:32.655Z,3.50
2023-01-04T18:47:00.989Z,3.38
2023-01-04T18:49:27.700Z,2.78
2023-01-04T18:51:54.438Z,3.42
2023-01-04T18:54:21.621Z,2.90
2023-01-04T18:56:48.811Z,2.35
2023-01-04T18:59:17.323Z,2.47
2023-01-04T19:01:45.373Z,2.25
2023-01-04T19:04:12.709Z,2.05
2023-01-04T19:06:40.307Z,1.80
2023-01-04T19:09:07.448Z,2.13
2023-01-04T19:11:34.565Z,2.30
2023-01-04T19:14:01.577Z,2.22
2023-01-04T19:16:31.022Z,1.77
2023-01-04T19:19:01.207Z,1.83
2023-01-04T19:21:28.450Z,1.77
2023-01-04T19:23:55.458Z,1.80
2023-01-04T19:26:22.567Z,1.77
2023-01-04T19:28:49.484Z,1.20
2023-01-04T19:31:16.661Z,1.92
2023-01-04T19:33:43.380Z,1.58
2023-01-04T19:36:11.335Z,1.30
2023-01-04T19:38:38.137Z,1.45
2023-01-04T19:41:05.229Z,1.40
2023-01-04T19:43:32.175Z,1.30
2023-01-04T19:45:59.034Z,1.77
2023-01-04T19:48:26.048Z,1.23
2023-01-04T19:51:22.125Z,0.85
2023-01-04T19:53:48.852Z,0.90
2023-01-04T19:56:16.900Z,1.13
2023-01-04T19:58:43.720Z,1.00
2023-01-04T20:01:14.699Z,1.10
2023-01-04T20:03:42.262Z,1.00
2023-01-04T20:06:09.290Z,1.60
2023-01-04T20:08:36.129Z,1.10
2023-01-04T20:11:02.928Z,1.73
2023-01-04T20:13:30.238Z,1.42
2023-01-04T20:15:57.008Z,1.40
2023-01-04T20:18:24.200Z,1.50
2023-01-04T20:20:52.199Z,1.73
2023-01-04T20:23:19.239Z,1.50
2023-01-04T20:25:47.144Z,1.30
2023-01-04T20:28:14.626Z,2.00
2023-01-04T20:30:41.413Z,1.23
2023-01-04T20:33:08.259Z,1.42
2023-01-04T20:35:38.401Z,1.50
2023-01-04T20:38:05.645Z,1.52
2023-01-04T20:40:32.466Z,1.90
2023-01-04T20:43:17.682Z,1.40
2023-01-04T20:45:45.390Z,1.60
2023-01-04T20:48:12.585Z,1.33
2023-01-04T20:50:39.723Z,1.40
2023-01-04T20:53:06.610Z,1.48
2023-01-04T20:55:37.665Z,1.50
2023-01-04T20:58:05.326Z,1.73
2023-01-04T21:00:32.100Z,1.33
2023-01-04T21:02:59.023Z,1.55
2023-01-04T21:05:25.811Z,1.65
2023-01-04T21:07:52.767Z,1.48
2023-01-04T21:10:19.534Z,1.30
2023-01-04T21:12:46.238Z,1.55
2023-01-04T21:15:12.969Z,1.40
2023-01-04T21:17:39.882Z,1.23
2023-01-04T21:20:07.390Z,1.42
2023-01-04T21:22:34.369Z,1.40
2023-01-04T21:25:01.091Z,1.25
2023-01-04T21:27:27.792Z,1.20
2023-01-04T21:29:54.535Z,1.23
2023-01-04T21:32:21.323Z,1.42
2023-01-04T21:34:48.025Z,1.40
2023-01-04T21:37:14.815Z,1.20
2023-01-04T21:39:41.495Z,1.10
2023-01-04T21:42:08.224Z,1.20
2023-01-04T21:44:34.956Z,1.15
2023-01-04T21:47:01.709Z,1.70
2023-01-04T21:49:28.526Z,1.02
2023-01-04T21:51:55.296Z,1.00
2023-01-04T21:54:22.095Z,1.25
2023-01-04T21:56:48.796Z,1.05
2023-01-04T21:59:15.511Z,1.00
2023-01-04T22:01:42.860Z,0.98
2023-01-04T22:04:09.684Z,1.10
2023-01-04T22:06:40.322Z,1.00
2023-01-04T22:09:07.271Z,0.80
2023-01-04T22:11:34.125Z,0.85
2023-01-04T22:14:00.930Z,0.75
2023-01-04T22:16:29.435Z,0.90
2023-01-04T22:18:56.231Z,0.80
2023-01-04T22:21:26.661Z,1.00
2023-01-04T22:23:53.644Z,2.05
2023-01-04T22:26:20.383Z,1.17
2023-01-04T22:28:47.140Z,0.90
2023-01-04T22:31:14.164Z,1.15
2023-01-04T22:33:41.166Z,1.00
2023-01-04T22:36:12.504Z,0.90
2023-01-04T22:38:42.370Z,1.50
2023-01-04T22:41:10.787Z,1.02
2023-01-04T22:43:37.671Z,1.20
2023-01-04T22:46:06.045Z,1.27
2023-01-04T22:48:33.401Z,1.13
2023-01-04T22:51:00.107Z,1.20
2023-01-04T22:53:27.334Z,0.95
2023-01-04T22:56:18.340Z,1.20
2023-01-04T22:58:40.884Z,1.10
2023-01-04T23:01:08.907Z,1.23
2023-01-04T23:03:37.023Z,1.30
2023-01-04T23:06:07.926Z,1.65
2023-01-04T23:08:35.209Z,1.35
2023-01-04T23:11:10.224Z,1.30
2023-01-04T23:13:36.927Z,1.58
2023-01-04T23:16:07.957Z,1.60
2023-01-04T23:18:34.919Z,1.50
2023-01-04T23:21:01.906Z,1.50
2023-01-04T23:23:28.759Z,1.42
2023-01-04T23:25:55.977Z,1.40
2023-01-04T23:28:22.706Z,1.50
2023-01-04T23:30:49.765Z,1.27
2023-01-04T23:33:16.488Z,1.30
2023-01-04T23:35:43.243Z,2.20
2023-01-04T23:38:09.954Z,1.50
2023-01-04T23:40:36.713Z,1.30
2023-01-04T23:43:03.469Z,1.30
2023-01-04T23:45:30.196Z,1.38
2023-01-04T23:47:56.925Z,1.30
2023-01-04T23:50:23.680Z,0.93
2023-01-04T23:52:50.405Z,1.30
2023-01-04T23:55:17.213Z,1.08
2023-01-04T23:57:44.039Z,1.20
